Time;durP1;ratioP1;P1;durP2;ratioP2;P2;SDS_P1;SDS_P2;PMS_P1;PMS_P2;Temp;Humidity;BMP_temperature;BMP_pressure;BME280_temperature;BME280_humidity;BME280_pressure;Samples;Min_cycle;Max_cycle;Signal;HPM_P1;HPM_P2
2021/04/24 00:00:21;;;;;;;22.40;21.10;;;;;;;;;;5053073;28;20464;-78
2021/04/24 00:02:48;;;;;;;24.00;22.20;;;;;;;;;;5052978;28;20243;-78
2021/04/24 00:05:18;;;;;;;24.10;22.40;;;;;;;;;;5053234;28;20531;-78
2021/04/24 00:07:45;;;;;;;24.43;22.20;;;;;;;;;;5053161;28;20471;-79
2021/04/24 00:10:15;;;;;;;24.48;22.70;;;;;;;;;;5053227;28;20452;-78
2021/04/24 00:12:42;;;;;;;24.10;22.40;;;;;;;;;;5053171;28;20663;-78
2021/04/24 00:15:11;;;;;;;23.90;21.90;;;;;;;;;;5053503;28;20450;-78
2021/04/24 00:17:39;;;;;;;22.73;21.33;;;;;;;;;;5053494;28;20413;-78
2021/04/24 00:20:07;;;;;;;24.00;22.33;;;;;;;;;;5053376;28;20434;-78
2021/04/24 00:22:33;;;;;;;24.40;22.90;;;;;;;;;;5053400;28;20434;-78
2021/04/24 00:25:00;;;;;;;23.57;22.17;;;;;;;;;;5053443;28;20461;-78
2021/04/24 00:27:27;;;;;;;24.00;22.20;;;;;;;;;;5053295;28;20558;-78
2021/04/24 00:29:54;;;;;;;24.13;22.50;;;;;;;;;;5053354;28;20416;-78
2021/04/24 00:32:21;;;;;;;23.90;22.20;;;;;;;;;;5053174;28;20430;-78
2021/04/24 00:34:49;;;;;;;24.20;22.70;;;;;;;;;;5052987;28;20466;-78
2021/04/24 00:37:16;;;;;;;23.77;22.17;;;;;;;;;;5052982;28;20439;-78
2021/04/24 00:39:43;;;;;;;23.70;22.00;;;;;;;;;;5052987;28;20462;-78
2021/04/24 00:42:10;;;;;;;24.58;22.60;;;;;;;;;;5053015;28;20415;-78
2021/04/24 00:44:37;;;;;;;25.95;24.35;;;;;;;;;;5053273;28;20190;-78
2021/04/24 00:47:03;;;;;;;24.35;22.40;;;;;;;;;;5053133;28;20219;-79
2021/04/24 00:49:30;;;;;;;26.47;24.13;;;;;;;;;;5052903;28;20718;-78
2021/04/24 00:51:58;;;;;;;24.90;23.30;;;;;;;;;;5053284;28;20438;-78
2021/04/24 00:54:25;;;;;;;24.45;22.85;;;;;;;;;;5053608;28;20416;-78
2021/04/24 00:56:52;;;;;;;24.73;22.90;;;;;;;;;;5035390;28;20211;-78
2021/04/24 00:59:19;;;;;;;24.63;23.05;;;;;;;;;;5052967;28;20222;-79
2021/04/24 01:01:46;;;;;;;25.48;23.75;;;;;;;;;;5034984;28;20203;-80
2021/04/24 01:04:13;;;;;;;24.45;22.73;;;;;;;;;;5052557;28;20238;-79
2021/04/24 01:06:40;;;;;;;25.20;23.60;;;;;;;;;;5053415;28;20237;-78
2021/04/24 01:09:08;;;;;;;26.35;24.08;;;;;;;;;;5056188;28;20423;-78
2021/04/24 01:11:35;;;;;;;25.67;24.02;;;;;;;;;;5056247;28;20187;-78
2021/04/24 01:14:02;;;;;;;24.25;22.42;;;;;;;;;;5056581;28;20196;-78
2021/04/24 01:16:29;;;;;;;24.40;22.65;;;;;;;;;;5056472;28;20567;-78
2021/04/24 01:18:56;;;;;;;24.83;23.15;;;;;;;;;;5056370;28;20195;-78
2021/04/24 01:21:24;;;;;;;25.00;23.20;;;;;;;;;;5056093;28;20194;-79
2021/04/24 01:23:52;;;;;;;24.33;22.73;;;;;;;;;;5056019;28;20191;-79
2021/04/24 01:26:19;;;;;;;25.25;23.50;;;;;;;;;;5056004;28;20449;-78
2021/04/24 01:28:46;;;;;;;25.20;23.30;;;;;;;;;;5056123;28;20237;-78
2021/04/24 01:31:13;;;;;;;24.88;23.05;;;;;;;;;;5056014;28;20191;-79
2021/04/24 01:33:40;;;;;;;25.85;23.85;;;;;;;;;;5055615;28;20205;-79
2021/04/24 01:36:07;;;;;;;25.75;23.85;;;;;;;;;;5056724;28;20195;-79
2021/04/24 01:38:34;;;;;;;24.08;22.38;;;;;;;;;;5056063;28;20261;-78
2021/04/24 01:41:02;;;;;;;25.60;24.00;;;;;;;;;;5056058;28;20193;-78
2021/04/24 01:43:32;;;;;;;24.13;22.42;;;;;;;;;;5055716;28;20464;-78
2021/04/24 01:45:59;;;;;;;25.42;23.48;;;;;;;;;;5055724;28;20682;-79
2021/04/24 01:48:25;;;;;;;24.15;22.52;;;;;;;;;;5055543;28;20219;-78
2021/04/24 01:50:52;;;;;;;23.60;22.10;;;;;;;;;;5055576;28;20206;-78
2021/04/24 01:53:20;;;;;;;24.48;23.02;;;;;;;;;;5055770;28;20717;-78
2021/04/24 01:55:47;;;;;;;26.25;24.33;;;;;;;;;;5055767;28;20187;-78
2021/04/24 01:58:16;;;;;;;24.75;23.15;;;;;;;;;;5055344;28;20209;-78
2021/04/24 02:00:44;;;;;;;24.27;22.58;;;;;;;;;;5055213;28;20222;-78
2021/04/24 02:03:12;;;;;;;26.35;24.50;;;;;;;;;;5037395;28;20688;-78
2021/04/24 02:05:40;;;;;;;26.00;24.00;;;;;;;;;;5055572;28;20190;-78
2021/04/24 02:08:07;;;;;;;24.80;23.10;;;;;;;;;;5055143;28;20227;-78
2021/04/24 02:10:34;;;;;;;24.98;22.90;;;;;;;;;;5054800;28;20582;-78
2021/04/24 02:13:02;;;;;;;24.02;22.33;;;;;;;;;;5055028;28;20203;-78
2021/04/24 02:15:30;;;;;;;24.45;22.85;;;;;;;;;;5055391;28;20203;-78
2021/04/24 02:17:57;;;;;;;25.13;22.88;;;;;;;;;;5054941;28;20223;-78
2021/04/24 02:20:24;;;;;;;25.77;23.65;;;;;;;;;;5037247;28;20206;-77
2021/04/24 02:22:51;;;;;;;25.85;23.77;;;;;;;;;;5055317;28;20277;-78
2021/04/24 02:25:20;;;;;;;27.40;24.70;;;;;;;;;;5055278;28;20197;-78
2021/04/24 02:27:47;;;;;;;25.13;23.50;;;;;;;;;;5055078;28;20579;-78
2021/04/24 02:30:16;;;;;;;27.10;24.90;;;;;;;;;;5055073;28;20236;-78
2021/04/24 02:32:44;;;;;;;29.00;26.40;;;;;;;;;;5054679;28;20211;-78
2021/04/24 02:35:12;;;;;;;29.30;26.88;;;;;;;;;;5054410;28;20207;-78
2021/04/24 02:37:39;;;;;;;28.95;26.33;;;;;;;;;;5054900;28;20199;-78
2021/04/24 02:40:08;;;;;;;27.83;25.55;;;;;;;;;;5054589;28;20191;-78
2021/04/24 02:42:35;;;;;;;30.98;28.23;;;;;;;;;;5054583;28;20194;-78
2021/04/24 02:45:05;;;;;;;27.95;25.65;;;;;;;;;;5054805;28;20219;-78
2021/04/24 02:47:32;;;;;;;29.70;27.13;;;;;;;;;;5036840;28;20319;-78
2021/04/24 02:50:00;;;;;;;30.02;26.92;;;;;;;;;;5054343;28;20205;-78
2021/04/24 02:52:27;;;;;;;28.15;25.50;;;;;;;;;;5054702;28;20202;-78
2021/04/24 02:54:54;;;;;;;27.67;25.50;;;;;;;;;;5054386;28;20217;-78
2021/04/24 02:57:21;;;;;;;27.63;25.13;;;;;;;;;;5054235;28;20635;-79
2021/04/24 02:59:48;;;;;;;27.70;25.40;;;;;;;;;;5054404;28;20227;-78
2021/04/24 03:02:16;;;;;;;29.05;26.75;;;;;;;;;;5053838;28;20663;-78
2021/04/24 03:04:43;;;;;;;27.13;24.92;;;;;;;;;;5054466;28;20194;-79
2021/04/24 03:07:11;;;;;;;25.77;23.75;;;;;;;;;;5054006;28;20236;-78
2021/04/24 03:09:38;;;;;;;25.60;23.50;;;;;;;;;;5054333;28;20205;-78
2021/04/24 03:12:05;;;;;;;26.67;24.67;;;;;;;;;;5054372;28;20190;-78
2021/04/24 03:14:32;;;;;;;25.35;23.13;;;;;;;;;;5053731;28;20205;-78
2021/04/24 03:16:59;;;;;;;25.92;24.02;;;;;;;;;;5053937;28;20198;-78
2021/04/24 03:19:25;;;;;;;26.08;23.77;;;;;;;;;;5054152;28;20199;-78
2021/04/24 03:21:52;;;;;;;26.85;24.25;;;;;;;;;;5054189;28;20190;-78
2021/04/24 03:24:20;;;;;;;26.75;24.63;;;;;;;;;;5054196;28;20605;-78
2021/04/24 03:26:47;;;;;;;26.05;24.10;;;;;;;;;;5053743;28;20202;-78
2021/04/24 03:29:14;;;;;;;26.05;24.13;;;;;;;;;;5053066;28;20548;-78
2021/04/24 03:31:41;;;;;;;26.48;24.58;;;;;;;;;;5053974;28;20213;-78
2021/04/24 03:34:08;;;;;;;24.90;23.10;;;;;;;;;;5053703;28;20193;-78
2021/04/24 03:36:35;;;;;;;26.90;24.35;;;;;;;;;;5036116;28;20186;-78
2021/04/24 03:39:02;;;;;;;29.70;27.25;;;;;;;;;;5053854;28;20198;-78
2021/04/24 03:41:30;;;;;;;26.55;24.25;;;;;;;;;;5053986;28;20193;-78
2021/04/24 03:43:57;;;;;;;26.85;24.52;;;;;;;;;;5053570;28;20647;-78
2021/04/24 03:46:24;;;;;;;26.17;23.88;;;;;;;;;;5036060;28;20676;-78
2021/04/24 03:48:51;;;;;;;25.17;23.38;;;;;;;;;;5053993;28;20221;-78
2021/04/24 03:51:18;;;;;;;29.77;27.38;;;;;;;;;;5053449;28;20230;-78
2021/04/24 03:53:45;;;;;;;32.35;29.85;;;;;;;;;;5054232;28;20562;-78
2021/04/24 03:56:12;;;;;;;30.90;28.50;;;;;;;;;;5053114;28;20218;-78
2021/04/24 03:58:40;;;;;;;27.67;25.67;;;;;;;;;;5053306;28;20199;-78
2021/04/24 04:01:07;;;;;;;24.23;22.42;;;;;;;;;;5036034;28;20190;-80
2021/04/24 04:03:34;;;;;;;24.85;23.05;;;;;;;;;;5053319;28;20234;-78
2021/04/24 04:06:01;;;;;;;24.75;22.88;;;;;;;;;;5053596;28;20201;-78
2021/04/24 04:08:27;;;;;;;23.65;21.88;;;;;;;;;;5053477;28;20234;-78
2021/04/24 04:10:54;;;;;;;24.58;22.48;;;;;;;;;;5053018;28;20211;-78
2021/04/24 04:13:21;;;;;;;24.80;22.63;;;;;;;;;;5053284;28;20290;-78
2021/04/24 04:15:49;;;;;;;25.05;23.13;;;;;;;;;;5053226;28;20529;-78
2021/04/24 04:18:17;;;;;;;24.75;22.95;;;;;;;;;;5053177;28;20191;-79
2021/04/24 04:20:45;;;;;;;26.67;24.65;;;;;;;;;;5035438;28;20210;-81
2021/04/24 04:23:12;;;;;;;25.30;23.48;;;;;;;;;;5053482;28;20598;-79
2021/04/24 04:25:39;;;;;;;25.45;23.15;;;;;;;;;;5053201;28;20193;-78
2021/04/24 04:28:06;;;;;;;26.10;24.10;;;;;;;;;;5053266;28;20219;-77
2021/04/24 04:30:33;;;;;;;26.25;24.00;;;;;;;;;;5053018;28;20199;-77
2021/04/24 04:33:01;;;;;;;26.02;23.65;;;;;;;;;;5052961;28;20198;-78
2021/04/24 04:35:28;;;;;;;26.27;23.98;;;;;;;;;;5053270;28;20245;-78
2021/04/24 04:37:55;;;;;;;24.42;22.63;;;;;;;;;;5052905;28;20212;-81
2021/04/24 04:40:22;;;;;;;26.75;24.10;;;;;;;;;;5053079;28;20639;-80
2021/04/24 04:42:49;;;;;;;26.73;24.58;;;;;;;;;;5055563;28;20194;-77
2021/04/24 04:45:17;;;;;;;26.40;24.00;;;;;;;;;;5057119;28;20191;-78
2021/04/24 04:47:44;;;;;;;24.98;23.10;;;;;;;;;;5056588;28;20222;-78
2021/04/24 04:50:14;;;;;;;30.60;26.83;;;;;;;;;;5056592;28;20218;-78
2021/04/24 04:52:41;;;;;;;26.30;24.40;;;;;;;;;;5039245;28;20201;-78
2021/04/24 04:55:09;;;;;;;25.55;23.67;;;;;;;;;;5056955;28;20209;-78
2021/04/24 04:57:37;;;;;;;25.77;23.50;;;;;;;;;;5056498;28;20203;-77
2021/04/24 05:00:05;;;;;;;26.25;24.35;;;;;;;;;;5056352;28;20265;-77
2021/04/24 05:02:32;;;;;;;25.30;23.40;;;;;;;;;;5056376;28;20234;-77
2021/04/24 05:04:59;;;;;;;26.92;24.42;;;;;;;;;;5056018;28;20190;-76
2021/04/24 05:07:27;;;;;;;26.17;23.98;;;;;;;;;;5056208;28;20219;-77
2021/04/24 05:09:53;;;;;;;25.80;23.88;;;;;;;;;;5056025;28;20299;-77
2021/04/24 05:12:20;;;;;;;28.00;25.55;;;;;;;;;;5056295;28;20195;-77
2021/04/24 05:14:47;;;;;;;26.40;24.45;;;;;;;;;;5056581;28;20194;-78
2021/04/24 05:17:14;;;;;;;28.55;25.75;;;;;;;;;;5056602;28;20198;-78
2021/04/24 05:19:41;;;;;;;27.45;24.77;;;;;;;;;;5038379;28;20563;-78
2021/04/24 05:22:08;;;;;;;26.77;24.60;;;;;;;;;;5056205;28;20641;-77
2021/04/24 05:24:36;;;;;;;26.55;24.65;;;;;;;;;;5056371;28;20186;-77
2021/04/24 05:27:03;;;;;;;25.05;23.25;;;;;;;;;;5055934;28;20198;-77
2021/04/24 05:29:29;;;;;;;26.00;23.77;;;;;;;;;;5055956;28;20274;-78
2021/04/24 05:31:56;;;;;;;25.83;23.83;;;;;;;;;;5055855;28;20191;-78
2021/04/24 05:34:23;;;;;;;25.75;23.95;;;;;;;;;;5056132;28;20211;-78
2021/04/24 05:36:50;;;;;;;26.30;24.30;;;;;;;;;;5038057;28;20206;-79
2021/04/24 05:39:17;;;;;;;25.80;23.85;;;;;;;;;;5037936;28;20203;-78
2021/04/24 05:41:45;;;;;;;25.15;23.15;;;;;;;;;;5055757;28;20191;-78
2021/04/24 05:44:12;;;;;;;25.55;23.65;;;;;;;;;;5056011;28;20194;-78
2021/04/24 05:46:39;;;;;;;26.38;23.92;;;;;;;;;;5055620;28;20191;-78
2021/04/24 05:49:05;;;;;;;25.98;23.90;;;;;;;;;;5055720;28;20234;-78
2021/04/24 05:51:32;;;;;;;25.67;23.67;;;;;;;;;;5055146;28;20195;-77
2021/04/24 05:53:59;;;;;;;26.90;24.73;;;;;;;;;;5037852;28;20202;-77
2021/04/24 05:56:26;;;;;;;25.53;23.53;;;;;;;;;;5055457;28;20555;-77
2021/04/24 05:58:54;;;;;;;26.77;24.08;;;;;;;;;;5055193;28;20984;-78
2021/04/24 06:01:21;;;;;;;24.85;22.95;;;;;;;;;;5037804;28;20214;-77
2021/04/24 06:03:48;;;;;;;25.77;23.38;;;;;;;;;;5055260;28;20234;-77
2021/04/24 06:06:15;;;;;;;26.17;24.15;;;;;;;;;;5055570;28;20199;-77
2021/04/24 06:08:42;;;;;;;28.73;26.50;;;;;;;;;;5055428;28;20247;-78
2021/04/24 06:11:08;;;;;;;26.15;24.10;;;;;;;;;;5055208;28;20687;-78
2021/04/24 06:13:35;;;;;;;25.13;23.23;;;;;;;;;;5055544;28;20192;-78
2021/04/24 06:16:03;;;;;;;24.77;22.83;;;;;;;;;;5055442;28;20453;-78
2021/04/24 06:18:30;;;;;;;24.42;22.52;;;;;;;;;;5055059;28;20198;-77
2021/04/24 06:20:57;;;;;;;25.47;23.47;;;;;;;;;;5037721;28;20553;-77
2021/04/24 06:23:24;;;;;;;24.85;22.63;;;;;;;;;;5055317;28;20439;-76
2021/04/24 06:25:51;;;;;;;26.27;24.17;;;;;;;;;;5055024;28;20191;-78
2021/04/24 06:28:18;;;;;;;27.03;25.03;;;;;;;;;;5055055;28;20590;-77
2021/04/24 06:30:44;;;;;;;26.97;24.80;;;;;;;;;;5055021;28;20432;-78
2021/04/24 06:33:12;;;;;;;26.98;24.75;;;;;;;;;;5054820;28;20446;-77
2021/04/24 06:35:39;;;;;;;25.37;23.37;;;;;;;;;;5037393;28;20253;-77
2021/04/24 06:38:06;;;;;;;24.60;22.80;;;;;;;;;;5055073;28;20479;-76
2021/04/24 06:40:33;;;;;;;26.70;24.73;;;;;;;;;;5055025;28;20191;-76
2021/04/24 06:43:00;;;;;;;26.60;24.40;;;;;;;;;;5054815;28;20196;-77
2021/04/24 06:45:27;;;;;;;25.83;23.77;;;;;;;;;;5054360;28;20462;-76
2021/04/24 06:47:54;;;;;;;26.40;24.20;;;;;;;;;;5054684;28;20697;-77
2021/04/24 06:50:22;;;;;;;24.30;22.58;;;;;;;;;;5054735;28;20561;-77
2021/04/24 06:52:49;;;;;;;25.87;23.93;;;;;;;;;;5054379;28;20282;-77
2021/04/24 06:55:18;;;;;;;25.38;23.40;;;;;;;;;;5054294;28;20445;-76
2021/04/24 06:57:45;;;;;;;24.73;23.05;;;;;;;;;;5054691;28;20265;-77
2021/04/24 07:00:14;;;;;;;24.60;22.40;;;;;;;;;;5054296;28;20223;-77
2021/04/24 07:02:41;;;;;;;23.47;21.87;;;;;;;;;;5053874;28;20949;-76
2021/04/24 07:05:10;;;;;;;24.40;22.60;;;;;;;;;;5053643;28;20418;-77
2021/04/24 07:07:38;;;;;;;24.80;23.10;;;;;;;;;;5054312;28;20455;-78
2021/04/24 07:10:05;;;;;;;25.67;23.57;;;;;;;;;;5053862;28;20788;-78
2021/04/24 07:12:32;;;;;;;25.30;23.50;;;;;;;;;;5053760;28;20439;-77
2021/04/24 07:14:59;;;;;;;25.20;23.17;;;;;;;;;;5053776;28;20412;-76
2021/04/24 07:17:26;;;;;;;24.27;22.60;;;;;;;;;;5054184;28;20449;-76
2021/04/24 07:19:53;;;;;;;24.30;22.33;;;;;;;;;;5053918;28;20434;-76
2021/04/24 07:22:20;;;;;;;23.50;21.90;;;;;;;;;;5054230;28;20443;-76
2021/04/24 07:24:48;;;;;;;25.63;23.83;;;;;;;;;;5053904;28;20462;-76
2021/04/24 07:27:15;;;;;;;25.57;23.60;;;;;;;;;;5054071;28;20443;-77
2021/04/24 07:29:42;;;;;;;26.53;24.13;;;;;;;;;;5036421;28;20446;-77
2021/04/24 07:32:09;;;;;;;25.27;23.30;;;;;;;;;;5053991;28;20499;-83
2021/04/24 07:34:36;;;;;;;25.00;23.33;;;;;;;;;;5053897;28;20491;-80
2021/04/24 07:37:03;;;;;;;25.27;23.77;;;;;;;;;;5053732;28;20925;-77
2021/04/24 07:39:30;;;;;;;24.87;23.30;;;;;;;;;;5054228;28;20416;-81
2021/04/24 07:41:58;;;;;;;24.40;22.30;;;;;;;;;;5053702;28;20449;-79
2021/04/24 07:44:25;;;;;;;23.30;21.90;;;;;;;;;;5053686;28;20438;-78
2021/04/24 07:46:52;;;;;;;25.07;23.37;;;;;;;;;;5036056;28;20807;-78
2021/04/24 07:49:19;;;;;;;24.57;22.77;;;;;;;;;;5052776;28;20554;-78
2021/04/24 07:51:46;;;;;;;25.73;23.57;;;;;;;;;;5053549;28;20439;-78
2021/04/24 07:54:14;;;;;;;24.83;22.90;;;;;;;;;;5052909;28;20426;-80
2021/04/24 07:56:42;;;;;;;25.10;23.30;;;;;;;;;;5053071;28;20906;-77
2021/04/24 07:59:10;;;;;;;22.13;20.93;;;;;;;;;;5053284;28;20448;-79
2021/04/24 08:01:37;;;;;;;23.30;21.90;;;;;;;;;;5035153;28;20883;-76
2021/04/24 08:04:04;;;;;;;22.80;21.50;;;;;;;;;;5052819;28;20459;-77
2021/04/24 08:06:31;;;;;;;23.43;21.83;;;;;;;;;;5034939;28;20413;-77
2021/04/24 08:08:58;;;;;;;24.20;22.60;;;;;;;;;;5052732;28;20475;-78
2021/04/24 08:11:25;;;;;;;25.30;23.60;;;;;;;;;;5053190;28;20442;-79
2021/04/24 08:13:52;;;;;;;23.90;22.17;;;;;;;;;;5052767;28;20462;-75
2021/04/24 08:16:20;;;;;;;23.87;22.10;;;;;;;;;;5055147;28;20442;-77
2021/04/24 08:18:47;;;;;;;23.13;21.63;;;;;;;;;;5058246;28;20413;-79
2021/04/24 08:21:13;;;;;;;23.23;21.57;;;;;;;;;;5058014;28;20433;-91
2021/04/24 08:23:40;;;;;;;23.40;21.97;;;;;;;;;;5057675;28;20434;-82
2021/04/24 08:26:08;;;;;;;23.60;22.10;;;;;;;;;;5024029;28;20413;-82
2021/04/24 08:28:34;;;;;;;23.77;22.17;;;;;;;;;;5057989;28;20971;-83
2021/04/24 08:31:01;;;;;;;22.53;21.13;;;;;;;;;;5058071;28;20409;-84
2021/04/24 08:33:29;;;;;;;21.83;20.53;;;;;;;;;;5057314;28;20413;-82
2021/04/24 08:35:56;;;;;;;23.43;21.83;;;;;;;;;;5057693;28;20421;-83
2021/04/24 08:38:23;;;;;;;22.67;21.37;;;;;;;;;;5057383;28;20443;-84
2021/04/24 08:40:50;;;;;;;22.10;20.70;;;;;;;;;;5057369;28;20461;-84
2021/04/24 08:43:17;;;;;;;23.70;22.03;;;;;;;;;;5058229;28;20811;-84
2021/04/24 08:45:45;;;;;;;24.37;22.43;;;;;;;;;;5057585;28;20492;-87
2021/04/24 08:48:12;;;;;;;22.93;21.43;;;;;;;;;;5057119;28;20452;-89
2021/04/24 08:50:39;;;;;;;23.17;21.67;;;;;;;;;;5057825;28;20419;-83
2021/04/24 08:53:06;;;;;;;24.87;23.00;;;;;;;;;;5057371;28;20437;-81
2021/04/24 08:55:34;;;;;;;23.63;21.83;;;;;;;;;;5057107;28;20442;-87
2021/04/24 08:58:02;;;;;;;24.13;22.40;;;;;;;;;;5057330;28;20424;-87
2021/04/24 09:00:31;;;;;;;23.10;21.50;;;;;;;;;;5057392;28;20452;-87
2021/04/24 09:02:58;;;;;;;23.57;21.87;;;;;;;;;;5057230;28;20481;-85
2021/04/24 09:05:26;;;;;;;23.10;21.70;;;;;;;;;;5057356;28;20756;-86
2021/04/24 09:08:01;;;;;;;22.07;20.67;;;;;;;;;;5057084;28;20463;-88
2021/04/24 09:10:28;;;;;;;25.00;23.37;;;;;;;;;;5057510;28;20420;-86
2021/04/24 09:12:55;;;;;;;25.83;24.10;;;;;;;;;;5057406;28;20416;-86
2021/04/24 09:15:23;;;;;;;26.00;24.10;;;;;;;;;;5039474;28;20454;-86
2021/04/24 09:17:54;;;;;;;25.00;23.40;;;;;;;;;;5056751;28;20516;-87
2021/04/24 09:20:22;;;;;;;24.23;22.63;;;;;;;;;;5056961;28;20472;-86
2021/04/24 09:23:01;;;;;;;23.83;22.23;;;;;;;;;;5039393;28;20414;-87
2021/04/24 09:25:38;;;;;;;24.37;22.50;;;;;;;;;;5057044;28;20441;-87
2021/04/24 09:28:06;;;;;;;24.37;22.30;;;;;;;;;;5055746;28;20490;-86
2021/04/24 09:30:34;;;;;;;24.73;22.93;;;;;;;;;;5056348;28;20413;-79
2021/04/24 09:33:08;;;;;;;23.03;21.53;;;;;;;;;;5056589;28;20421;-84
2021/04/24 09:35:39;;;;;;;23.50;22.10;;;;;;;;;;5056441;28;20416;-91
2021/04/24 09:38:09;;;;;;;25.53;23.13;;;;;;;;;;5056282;28;20409;-84
2021/04/24 09:40:36;;;;;;;24.23;22.60;;;;;;;;;;5056218;28;20420;-82
2021/04/24 09:43:05;;;;;;;25.30;23.60;;;;;;;;;;5056181;28;20412;-84
2021/04/24 09:45:34;;;;;;;23.57;22.20;;;;;;;;;;5056536;28;20421;-84
2021/04/24 09:48:01;;;;;;;25.00;23.27;;;;;;;;;;5056191;28;20543;-86
2021/04/24 09:50:33;;;;;;;23.40;21.90;;;;;;;;;;5056341;28;20416;-83
2021/04/24 09:53:14;;;;;;;24.30;22.50;;;;;;;;;;5056169;28;20453;-84
2021/04/24 09:55:41;;;;;;;22.87;21.40;;;;;;;;;;5056173;28;20473;-85
2021/04/24 09:58:23;;;;;;;24.70;22.80;;;;;;;;;;5055883;28;20517;-87
2021/04/24 10:00:50;;;;;;;24.43;22.93;;;;;;;;;;5056396;28;20423;-86
2021/04/24 10:03:32;;;;;;;24.17;22.70;;;;;;;;;;5035063;28;20483;-86
2021/04/24 10:06:14;;;;;;;26.03;24.27;;;;;;;;;;5036400;28;20422;-85
2021/04/24 10:08:41;;;;;;;25.07;23.57;;;;;;;;;;5034965;28;20465;-86
2021/04/24 10:11:08;;;;;;;24.00;22.20;;;;;;;;;;5036236;28;20478;-86
2021/04/24 10:13:39;;;;;;;23.70;22.00;;;;;;;;;;5035984;28;20415;-84
2021/04/24 10:16:07;;;;;;;24.40;22.47;;;;;;;;;;5036244;28;20402;-83
2021/04/24 10:18:34;;;;;;;24.60;22.77;;;;;;;;;;5036630;28;20421;-85
2021/04/24 10:21:01;;;;;;;24.03;22.53;;;;;;;;;;5036136;28;20458;-86
2021/04/24 10:23:28;;;;;;;25.83;24.23;;;;;;;;;;5036082;28;20884;-85
2021/04/24 10:25:56;;;;;;;25.47;23.60;;;;;;;;;;5035767;28;20414;-85
2021/04/24 10:28:23;;;;;;;27.33;25.33;;;;;;;;;;5035831;28;20473;-86
2021/04/24 10:30:50;;;;;;;24.93;22.93;;;;;;;;;;5036143;28;20443;-85
2021/04/24 10:33:19;;;;;;;24.70;23.30;;;;;;;;;;5035391;28;20435;-85
2021/04/24 10:35:47;;;;;;;26.30;24.50;;;;;;;;;;5036020;28;20443;-85
2021/04/24 10:38:14;;;;;;;23.70;22.20;;;;;;;;;;5035782;28;20546;-86
2021/04/24 10:40:46;;;;;;;24.97;23.30;;;;;;;;;;5035732;28;20418;-85
2021/04/24 10:43:20;;;;;;;26.70;24.57;;;;;;;;;;5035591;28;20415;-85
2021/04/24 10:45:48;;;;;;;25.40;23.80;;;;;;;;;;5035867;28;20422;-86
2021/04/24 10:48:23;;;;;;;25.53;23.93;;;;;;;;;;5035360;28;20470;-84
2021/04/24 10:50:50;;;;;;;24.30;22.40;;;;;;;;;;5036178;28;20459;-89
2021/04/24 10:53:18;;;;;;;26.63;24.73;;;;;;;;;;5035516;28;20443;-85
2021/04/24 10:55:45;;;;;;;27.97;25.70;;;;;;;;;;5035335;28;20416;-85
2021/04/24 10:58:16;;;;;;;27.57;24.87;;;;;;;;;;5035214;28;20430;-85
2021/04/24 11:00:53;;;;;;;26.30;24.43;;;;;;;;;;5034985;28;20961;-85
2021/04/24 11:03:41;;;;;;;26.30;24.50;;;;;;;;;;5043665;28;20460;-85
2021/04/24 11:06:09;;;;;;;27.43;25.43;;;;;;;;;;5054871;28;20512;-87
2021/04/24 11:08:36;;;;;;;26.50;24.90;;;;;;;;;;5054927;28;20540;-85
2021/04/24 11:11:07;;;;;;;26.20;24.30;;;;;;;;;;5054644;28;20436;-85
2021/04/24 11:13:36;;;;;;;26.43;24.63;;;;;;;;;;5054961;28;20414;-87
2021/04/24 11:16:04;;;;;;;28.23;25.97;;;;;;;;;;5037222;28;20421;-87
2021/04/24 11:18:33;;;;;;;26.07;24.37;;;;;;;;;;5054675;28;20773;-87
2021/04/24 11:21:02;;;;;;;24.77;22.97;;;;;;;;;;5055536;28;20418;-87
2021/04/24 11:23:49;;;;;;;26.93;24.83;;;;;;;;;;5054420;28;20449;-87
2021/04/24 11:26:17;;;;;;;24.70;23.00;;;;;;;;;;5054813;28;20420;-86
2021/04/24 11:29:02;;;;;;;26.17;24.17;;;;;;;;;;5054654;28;20499;-87
2021/04/24 11:31:49;;;;;;;26.10;24.30;;;;;;;;;;5054386;28;20420;-87
2021/04/24 11:34:40;;;;;;;24.43;22.50;;;;;;;;;;5054607;28;20405;-87
2021/04/24 11:37:25;;;;;;;25.87;23.83;;;;;;;;;;5054572;28;20446;-87
2021/04/24 11:40:06;;;;;;;24.77;23.07;;;;;;;;;;5054366;28;20425;-87
2021/04/24 11:42:33;;;;;;;25.57;23.73;;;;;;;;;;5054551;28;20425;-87
2021/04/24 11:45:01;;;;;;;26.00;23.97;;;;;;;;;;5054446;28;20446;-88
2021/04/24 11:47:46;;;;;;;25.50;23.60;;;;;;;;;;5054535;28;20435;-90
2021/04/24 11:50:13;;;;;;;25.30;23.40;;;;;;;;;;5053801;28;20417;-88
2021/04/24 11:52:41;;;;;;;26.30;24.47;;;;;;;;;;5036156;28;20458;-84
2021/04/24 11:55:08;;;;;;;26.53;24.30;;;;;;;;;;5054260;28;20483;-79
2021/04/24 11:57:35;;;;;;;26.53;24.53;;;;;;;;;;5054754;28;20442;-92
2021/04/24 12:00:03;;;;;;;25.77;23.83;;;;;;;;;;5054947;28;20474;-92
2021/04/24 12:02:33;;;;;;;26.77;24.87;;;;;;;;;;5056355;28;20417;-91
2021/04/24 12:05:05;;;;;;;26.40;24.40;;;;;;;;;;5055758;28;20887;-89
2021/04/24 12:07:39;;;;;;;27.10;25.30;;;;;;;;;;5054530;28;20451;-92
2021/04/24 12:10:06;;;;;;;26.33;24.40;;;;;;;;;;5036449;28;20439;-91
2021/04/24 12:12:35;;;;;;;25.47;23.67;;;;;;;;;;5054058;28;20439;-91
2021/04/24 12:15:04;;;;;;;26.13;24.37;;;;;;;;;;5053474;28;20455;-90
2021/04/24 12:17:31;;;;;;;25.00;23.40;;;;;;;;;;5054281;28;20439;-90
2021/04/24 12:19:58;;;;;;;27.07;25.17;;;;;;;;;;5054913;28;20777;-90
2021/04/24 12:22:26;;;;;;;25.53;23.63;;;;;;;;;;5054932;28;20429;-91
2021/04/24 12:25:00;;;;;;;25.77;23.87;;;;;;;;;;5053717;28;20452;-86
2021/04/24 12:27:33;;;;;;;27.23;25.00;;;;;;;;;;5053326;28;20500;-90
2021/04/24 12:30:01;;;;;;;25.77;23.93;;;;;;;;;;5053760;28;20854;-90
2021/04/24 12:32:34;;;;;;;26.57;24.47;;;;;;;;;;5055374;28;20413;-90
2021/04/24 12:35:05;;;;;;;26.23;24.43;;;;;;;;;;5053893;28;20886;-79
2021/04/24 12:37:32;;;;;;;28.00;25.80;;;;;;;;;;5036491;28;20443;-82
2021/04/24 12:40:04;;;;;;;25.70;24.10;;;;;;;;;;5053676;28;20925;-91
2021/04/24 12:42:31;;;;;;;24.27;22.67;;;;;;;;;;5054199;28;20847;-91
2021/04/24 12:44:58;;;;;;;27.00;24.93;;;;;;;;;;5054511;28;20446;-91
2021/04/24 12:47:25;;;;;;;25.80;24.00;;;;;;;;;;5054510;28;20764;-91
2021/04/24 12:49:53;;;;;;;26.43;24.63;;;;;;;;;;5053621;28;20966;-91
2021/04/24 12:52:20;;;;;;;25.47;23.87;;;;;;;;;;5054663;28;20493;-91
2021/04/24 12:55:02;;;;;;;25.30;23.47;;;;;;;;;;5053895;28;20822;-84
2021/04/24 12:57:31;;;;;;;25.80;23.90;;;;;;;;;;5053214;28;20402;-85
2021/04/24 12:59:59;;;;;;;26.50;24.67;;;;;;;;;;5053512;28;20416;-85
2021/04/24 13:02:33;;;;;;;25.47;23.80;;;;;;;;;;5036361;28;20470;-86
2021/04/24 13:05:01;;;;;;;25.80;24.10;;;;;;;;;;5057950;28;20493;-86
2021/04/24 13:07:29;;;;;;;26.33;24.40;;;;;;;;;;5057417;28;20753;-86
2021/04/24 13:09:57;;;;;;;27.73;25.77;;;;;;;;;;5057235;28;20478;-85
2021/04/24 13:12:24;;;;;;;26.87;24.97;;;;;;;;;;5057222;28;20493;-86
2021/04/24 13:14:52;;;;;;;26.23;24.60;;;;;;;;;;5057357;28;20442;-85
2021/04/24 13:17:20;;;;;;;26.27;24.47;;;;;;;;;;5057135;28;20482;-86
2021/04/24 13:19:49;;;;;;;27.27;25.13;;;;;;;;;;5039056;28;20461;-84
2021/04/24 13:25:12;;;;;;;26.23;24.40;;;;;;;;;;5113297;27;20506;-87
2021/04/24 13:27:39;;;;;;;27.53;25.23;;;;;;;;;;5110434;28;20419;-83
2021/04/24 13:30:09;;;;;;;25.80;23.93;;;;;;;;;;5112200;28;20490;-85
2021/04/24 13:32:36;;;;;;;26.67;24.97;;;;;;;;;;5112089;28;20417;-86
2021/04/24 13:35:03;;;;;;;27.33;25.23;;;;;;;;;;5111723;28;20443;-86
2021/04/24 13:37:32;;;;;;;25.60;23.90;;;;;;;;;;5110157;28;20409;-82
2021/04/24 13:40:00;;;;;;;26.47;24.70;;;;;;;;;;5111682;28;20406;-78
2021/04/24 13:42:29;;;;;;;25.80;24.27;;;;;;;;;;5111643;28;20512;-80
2021/04/24 13:45:13;;;;;;;27.63;25.43;;;;;;;;;;5111264;28;20480;-80
2021/04/24 13:47:40;;;;;;;25.80;23.90;;;;;;;;;;5110842;28;20443;-76
2021/04/24 13:50:09;;;;;;;27.20;25.00;;;;;;;;;;5111344;28;20493;-78
2021/04/24 13:52:36;;;;;;;27.53;25.73;;;;;;;;;;5111292;28;20418;-77
2021/04/24 13:55:03;;;;;;;25.30;23.60;;;;;;;;;;5111027;28;20434;-78
2021/04/24 13:57:31;;;;;;;25.97;24.27;;;;;;;;;;5109539;28;20420;-78
2021/04/24 13:59:58;;;;;;;26.90;25.10;;;;;;;;;;5110706;28;20432;-78
2021/04/24 14:02:25;;;;;;;27.50;25.37;;;;;;;;;;5111131;28;20461;-77
2021/04/24 14:04:52;;;;;;;26.93;24.80;;;;;;;;;;5110944;28;20479;-78
2021/04/24 14:07:19;;;;;;;27.30;25.40;;;;;;;;;;5110784;28;20439;-78
2021/04/24 14:09:46;;;;;;;27.10;25.20;;;;;;;;;;5110766;28;20412;-79
2021/04/24 14:12:13;;;;;;;32.93;30.53;;;;;;;;;;5110821;28;20436;-79
2021/04/24 14:14:41;;;;;;;30.80;28.63;;;;;;;;;;5110611;28;20476;-79
2021/04/24 14:17:08;;;;;;;27.00;25.30;;;;;;;;;;5110959;28;20440;-87
2021/04/24 14:19:36;;;;;;;26.47;24.40;;;;;;;;;;5110965;28;20834;-78
2021/04/24 14:22:03;;;;;;;27.57;25.50;;;;;;;;;;5111110;28;20435;-81
2021/04/24 14:24:30;;;;;;;27.03;24.93;;;;;;;;;;5110648;28;20545;-82